Time;durP1;ratioP1;P1;durP2;ratioP2;P2;SDS_P1;SDS_P2;PMS_P1;PMS_P2;Temp;Humidity;BMP_temperature;BMP_pressure;BME280_temperature;BME280_humidity;BME280_pressure;Samples;Min_cycle;Max_cycle;Signal;HPM_P1;HPM_P2
2023/04/30 00:00:44;;;;;;;7.20;2.20;;;;;;;;;;5006753;28;20132;-77
2023/04/30 00:03:09;;;;;;;2.45;2.17;;;;;;;;;;5023169;28;20025;-77
2023/04/30 00:05:36;;;;;;;4.95;2.97;;;;;;;;;;5039426;28;20029;-78
2023/04/30 00:08:01;;;;;;;1.75;1.10;;;;;;;;;;5023401;28;20354;-78
2023/04/30 00:10:27;;;;;;;2.92;1.52;;;;;;;;;;5023056;28;20107;-77
2023/04/30 00:12:52;;;;;;;3.58;1.80;;;;;;;;;;5023034;28;20029;-78
2023/04/30 00:15:18;;;;;;;3.22;1.52;;;;;;;;;;5039432;28;20374;-78
2023/04/30 00:17:43;;;;;;;1.80;1.65;;;;;;;;;;5057351;28;20044;-78
2023/04/30 00:20:09;;;;;;;4.18;3.53;;;;;;;;;;5038789;28;20109;-78
2023/04/30 00:22:36;;;;;;;1.48;1.10;;;;;;;;;;5039247;28;20025;-77
2023/04/30 00:25:01;;;;;;;2.83;2.58;;;;;;;;;;5022802;28;20036;-78
2023/04/30 00:27:27;;;;;;;4.15;1.92;;;;;;;;;;5022628;28;20438;-78
2023/04/30 00:29:53;;;;;;;3.38;2.20;;;;;;;;;;5039236;28;20065;-77
2023/04/30 00:32:19;;;;;;;1.50;1.40;;;;;;;;;;5057123;28;20033;-79
2023/04/30 00:34:44;;;;;;;1.85;1.73;;;;;;;;;;5022291;28;20032;-78
2023/04/30 00:37:10;;;;;;;5.43;3.42;;;;;;;;;;5022740;28;20359;-79
2023/04/30 00:39:35;;;;;;;2.47;1.90;;;;;;;;;;5057110;28;20122;-78
2023/04/30 00:42:01;;;;;;;1.20;1.17;;;;;;;;;;5039014;28;20485;-77
2023/04/30 00:44:27;;;;;;;1.63;1.20;;;;;;;;;;5038983;28;20464;-79
2023/04/30 00:46:52;;;;;;;2.67;1.33;;;;;;;;;;5022166;28;20118;-78
2023/04/30 00:49:17;;;;;;;9.93;2.88;;;;;;;;;;5038715;28;20028;-77
2023/04/30 00:51:43;;;;;;;1.95;1.50;;;;;;;;;;5038946;28;20021;-78
2023/04/30 00:54:08;;;;;;;1.50;1.40;;;;;;;;;;5006060;28;20354;-78
2023/04/30 00:56:34;;;;;;;1.65;1.27;;;;;;;;;;5038744;28;20025;-78
2023/04/30 00:59:00;;;;;;;3.63;2.80;;;;;;;;;;5016661;28;20029;-78
2023/04/30 01:01:27;;;;;;;2.15;1.55;;;;;;;;;;5022188;28;20021;-78
2023/04/30 01:03:53;;;;;;;4.25;1.88;;;;;;;;;;5021408;28;20060;-78
2023/04/30 01:06:18;;;;;;;1.30;1.17;;;;;;;;;;5038412;28;20063;-78
2023/04/30 01:08:44;;;;;;;4.22;2.70;;;;;;;;;;5038748;28;20044;-77
2023/04/30 01:11:24;;;;;;;5.15;2.55;;;;;;;;;;5022334;28;20107;-78
2023/04/30 01:14:11;;;;;;;6.40;1.98;;;;;;;;;;5056053;28;20507;-78
2023/04/30 01:17:06;;;;;;;1.75;1.13;;;;;;;;;;5021970;28;20029;-79
2023/04/30 01:19:41;;;;;;;1.05;1.05;;;;;;;;;;5040405;28;20548;-78
2023/04/30 01:22:09;;;;;;;1.67;1.58;;;;;;;;;;5006265;28;20025;-77
2023/04/30 01:24:45;;;;;;;2.15;1.45;;;;;;;;;;5021756;28;20044;-78
2023/04/30 01:27:40;;;;;;;1.42;1.15;;;;;;;;;;5022189;28;20032;-78
2023/04/30 01:30:06;;;;;;;0.82;0.75;;;;;;;;;;5006048;28;20102;-77
2023/04/30 01:32:31;;;;;;;3.85;1.77;;;;;;;;;;5021498;28;20094;-78
2023/04/30 01:34:57;;;;;;;1.33;1.23;;;;;;;;;;5055802;28;20039;-78
2023/04/30 01:37:51;;;;;;;2.75;1.42;;;;;;;;;;5054621;28;20033;-78
2023/04/30 01:40:32;;;;;;;2.58;1.65;;;;;;;;;;5037948;28;20386;-78
2023/04/30 01:43:03;;;;;;;2.20;1.98;;;;;;;;;;5037847;28;20029;-77
2023/04/30 01:45:46;;;;;;;3.53;2.28;;;;;;;;;;5037812;28;20021;-77
2023/04/30 01:48:42;;;;;;;8.13;2.88;;;;;;;;;;5038322;28;20127;-77
2023/04/30 01:51:26;;;;;;;5.93;1.27;;;;;;;;;;5021347;28;20033;-76
2023/04/30 01:53:51;;;;;;;3.30;2.00;;;;;;;;;;5039213;28;20036;-77
2023/04/30 01:56:41;;;;;;;2.33;2.13;;;;;;;;;;5004923;28;20437;-78
2023/04/30 01:59:07;;;;;;;5.30;2.05;;;;;;;;;;5037655;28;20025;-78
2023/04/30 02:01:32;;;;;;;3.47;2.47;;;;;;;;;;5017952;28;20025;-78
2023/04/30 02:03:58;;;;;;;2.83;1.35;;;;;;;;;;5055305;28;20032;-78
2023/04/30 02:06:28;;;;;;;2.53;1.65;;;;;;;;;;5020826;28;20025;-77
2023/04/30 02:08:55;;;;;;;3.08;1.40;;;;;;;;;;5037905;28;20039;-77
2023/04/30 02:11:24;;;;;;;17.92;2.60;;;;;;;;;;5037949;28;20040;-77
2023/04/30 02:13:50;;;;;;;3.28;1.65;;;;;;;;;;5021216;28;20025;-77
2023/04/30 02:16:17;;;;;;;3.53;2.03;;;;;;;;;;5021400;28;20053;-77
2023/04/30 02:18:42;;;;;;;0.68;0.65;;;;;;;;;;5036864;28;20037;-77
2023/04/30 02:21:07;;;;;;;5.60;2.22;;;;;;;;;;5037055;28;20036;-77
2023/04/30 02:23:33;;;;;;;1.80;1.40;;;;;;;;;;5036953;28;20339;-77
2023/04/30 02:25:58;;;;;;;3.35;1.88;;;;;;;;;;5036930;28;20422;-76
2023/04/30 02:28:24;;;;;;;3.95;1.52;;;;;;;;;;5020531;28;20402;-78
2023/04/30 02:30:49;;;;;;;2.33;1.33;;;;;;;;;;5003879;28;20029;-76
2023/04/30 02:33:15;;;;;;;5.32;2.05;;;;;;;;;;5036983;28;20033;-76
2023/04/30 02:35:40;;;;;;;3.25;2.30;;;;;;;;;;5054749;28;20099;-76
2023/04/30 02:38:06;;;;;;;3.17;1.77;;;;;;;;;;5004137;28;20441;-76
2023/04/30 02:40:31;;;;;;;2.72;2.00;;;;;;;;;;5037054;28;20029;-77
2023/04/30 02:42:56;;;;;;;3.15;2.10;;;;;;;;;;5036980;28;20025;-77
2023/04/30 02:45:22;;;;;;;3.35;1.90;;;;;;;;;;5020052;28;20057;-78
2023/04/30 02:47:47;;;;;;;3.05;1.73;;;;;;;;;;5054325;28;20049;-78
2023/04/30 02:50:13;;;;;;;3.38;2.28;;;;;;;;;;5003878;28;20025;-77
2023/04/30 02:52:39;;;;;;;3.53;1.80;;;;;;;;;;5053438;28;20382;-78
2023/04/30 02:55:05;;;;;;;5.93;1.98;;;;;;;;;;5036304;28;20055;-77
2023/04/30 02:57:30;;;;;;;7.13;2.63;;;;;;;;;;5020033;28;20040;-78
2023/04/30 02:59:56;;;;;;;5.07;2.88;;;;;;;;;;5020014;28;20025;-78
2023/04/30 03:02:22;;;;;;;4.07;1.58;;;;;;;;;;5035746;28;20551;-77
2023/04/30 03:04:48;;;;;;;4.93;2.30;;;;;;;;;;5014912;28;20048;-78
2023/04/30 03:07:14;;;;;;;7.82;2.92;;;;;;;;;;5036600;28;20067;-78
2023/04/30 03:09:39;;;;;;;6.25;3.70;;;;;;;;;;5036233;28;20017;-78
2023/04/30 03:12:05;;;;;;;2.42;1.50;;;;;;;;;;5052666;28;20025;-78
2023/04/30 03:14:30;;;;;;;6.40;2.92;;;;;;;;;;5019321;28;20024;-78
2023/04/30 03:16:55;;;;;;;4.15;1.83;;;;;;;;;;5035930;28;20146;-78
2023/04/30 03:19:24;;;;;;;5.55;3.10;;;;;;;;;;5036017;28;20033;-78
2023/04/30 03:21:50;;;;;;;4.63;2.13;;;;;;;;;;5020882;28;20116;-77
2023/04/30 03:24:16;;;;;;;3.90;1.92;;;;;;;;;;5019959;28;20040;-77
2023/04/30 03:26:41;;;;;;;5.70;3.50;;;;;;;;;;5035376;28;20374;-77
2023/04/30 03:29:07;;;;;;;4.30;3.13;;;;;;;;;;5019130;28;20029;-77
2023/04/30 03:31:32;;;;;;;3.88;2.25;;;;;;;;;;5019609;28;20131;-76
2023/04/30 03:33:57;;;;;;;4.10;2.33;;;;;;;;;;5035834;28;20223;-77
2023/04/30 03:36:23;;;;;;;5.63;3.80;;;;;;;;;;5035699;28;20417;-78
2023/04/30 03:38:48;;;;;;;4.45;2.33;;;;;;;;;;5035523;28;20055;-77
2023/04/30 03:41:14;;;;;;;7.28;3.78;;;;;;;;;;5036791;28;20033;-78
2023/04/30 03:43:39;;;;;;;5.18;2.22;;;;;;;;;;5019647;28;20079;-78
2023/04/30 03:46:05;;;;;;;5.85;3.55;;;;;;;;;;5035791;28;20055;-78
2023/04/30 03:48:30;;;;;;;3.88;2.47;;;;;;;;;;5036168;28;20366;-78
2023/04/30 03:50:56;;;;;;;11.43;3.55;;;;;;;;;;5019271;28;20025;-78
2023/04/30 03:53:21;;;;;;;2.35;1.80;;;;;;;;;;5019273;28;20382;-77
2023/04/30 03:55:48;;;;;;;3.65;2.25;;;;;;;;;;5035629;28;20067;-78
2023/04/30 03:58:14;;;;;;;9.05;3.55;;;;;;;;;;5019312;28;20033;-79
2023/04/30 04:00:40;;;;;;;3.28;1.70;;;;;;;;;;5003068;28;20351;-78
2023/04/30 04:03:06;;;;;;;3.08;2.08;;;;;;;;;;5019300;28;20033;-78
2023/04/30 04:05:31;;;;;;;3.17;2.05;;;;;;;;;;5008942;28;20124;-80
2023/04/30 04:07:57;;;;;;;6.03;3.65;;;;;;;;;;5053434;28;20214;-79
2023/04/30 04:10:22;;;;;;;4.45;3.20;;;;;;;;;;5002867;28;20143;-75
2023/04/30 04:12:47;;;;;;;4.22;3.13;;;;;;;;;;5035193;28;20025;-76
2023/04/30 04:15:13;;;;;;;28.08;4.72;;;;;;;;;;5035431;28;20028;-78
2023/04/30 04:17:38;;;;;;;4.57;2.40;;;;;;;;;;5035380;28;20040;-77
2023/04/30 04:20:05;;;;;;;4.72;3.28;;;;;;;;;;5052017;28;20079;-77
2023/04/30 04:22:30;;;;;;;4.45;2.42;;;;;;;;;;5035574;28;20358;-77
2023/04/30 04:24:56;;;;;;;2.55;2.17;;;;;;;;;;5051952;28;20033;-78
2023/04/30 04:27:22;;;;;;;8.10;3.25;;;;;;;;;;5018679;28;20033;-77
2023/04/30 04:29:47;;;;;;;7.18;3.20;;;;;;;;;;5035440;28;20032;-77
2023/04/30 04:32:13;;;;;;;2.15;1.70;;;;;;;;;;5018631;28;20362;-77
2023/04/30 04:34:38;;;;;;;3.70;2.83;;;;;;;;;;5035194;28;20116;-77
2023/04/30 04:37:04;;;;;;;6.85;3.55;;;;;;;;;;5035310;28;20037;-78
2023/04/30 04:39:30;;;;;;;7.88;2.08;;;;;;;;;;5055604;28;20037;-77
2023/04/30 04:41:55;;;;;;;3.15;1.88;;;;;;;;;;5038785;28;20409;-78
2023/04/30 04:44:21;;;;;;;2.42;2.10;;;;;;;;;;5006224;28;20498;-78
2023/04/30 04:46:48;;;;;;;4.40;3.28;;;;;;;;;;5038743;28;20447;-78
2023/04/30 04:49:14;;;;;;;3.55;2.78;;;;;;;;;;5022406;28;20029;-78
2023/04/30 04:51:40;;;;;;;8.55;3.25;;;;;;;;;;5056637;28;20097;-78
2023/04/30 04:54:05;;;;;;;8.23;2.63;;;;;;;;;;5038792;28;20067;-78
2023/04/30 04:56:31;;;;;;;5.85;2.83;;;;;;;;;;5022182;28;20055;-80
2023/04/30 04:58:57;;;;;;;9.80;3.88;;;;;;;;;;5038792;28;20065;-79
2023/04/30 05:01:23;;;;;;;5.03;2.10;;;;;;;;;;5005917;28;20033;-79
2023/04/30 05:03:48;;;;;;;7.65;4.00;;;;;;;;;;5038626;28;20104;-79
2023/04/30 05:06:13;;;;;;;7.03;4.10;;;;;;;;;;5055548;28;20029;-78
2023/04/30 05:08:39;;;;;;;10.85;4.50;;;;;;;;;;5011761;28;20487;-77
2023/04/30 05:11:05;;;;;;;8.90;3.55;;;;;;;;;;5036019;28;20537;-76
2023/04/30 05:13:30;;;;;;;4.20;2.40;;;;;;;;;;5002257;28;20025;-77
2023/04/30 05:15:55;;;;;;;8.63;3.33;;;;;;;;;;5036181;28;20026;-78
2023/04/30 05:18:21;;;;;;;12.00;2.72;;;;;;;;;;5018459;28;20041;-77
2023/04/30 05:20:46;;;;;;;10.00;3.85;;;;;;;;;;5001951;28;20108;-77
2023/04/30 05:23:12;;;;;;;5.22;3.03;;;;;;;;;;5036087;28;20022;-77
2023/04/30 05:25:37;;;;;;;4.65;3.10;;;;;;;;;;5035947;28;20026;-78
2023/04/30 05:28:03;;;;;;;7.13;3.67;;;;;;;;;;5018484;28;20044;-77
2023/04/30 05:30:29;;;;;;;8.07;2.88;;;;;;;;;;5035962;28;20022;-78
2023/04/30 05:32:55;;;;;;;8.20;3.33;;;;;;;;;;5001764;28;20029;-77
2023/04/30 05:35:21;;;;;;;7.50;3.67;;;;;;;;;;5018422;28;20591;-78
2023/04/30 05:37:46;;;;;;;10.82;4.60;;;;;;;;;;5035773;28;20051;-78
2023/04/30 05:40:12;;;;;;;7.55;3.78;;;;;;;;;;4985584;28;20030;-77
2023/04/30 05:42:39;;;;;;;6.32;4.13;;;;;;;;;;5001789;28;20025;-79
2023/04/30 05:45:05;;;;;;;10.35;5.05;;;;;;;;;;5018254;28;20525;-76
2023/04/30 05:47:31;;;;;;;8.57;4.13;;;;;;;;;;5001502;28;20061;-79
2023/04/30 05:49:56;;;;;;;7.53;4.03;;;;;;;;;;5017485;28;20029;-79
2023/04/30 05:52:22;;;;;;;11.15;6.18;;;;;;;;;;4985215;28;20087;-79
2023/04/30 05:54:47;;;;;;;12.02;5.50;;;;;;;;;;5001380;28;20032;-78
2023/04/30 05:57:13;;;;;;;8.68;5.65;;;;;;;;;;5017821;28;20112;-79
2023/04/30 05:59:38;;;;;;;11.98;5.50;;;;;;;;;;5017706;28;20081;-77
2023/04/30 06:02:05;;;;;;;9.63;4.28;;;;;;;;;;5001495;28;20021;-79
2023/04/30 06:04:30;;;;;;;9.80;5.57;;;;;;;;;;5035238;28;20083;-79
2023/04/30 06:06:56;;;;;;;9.68;4.65;;;;;;;;;;5001212;28;20055;-79
2023/04/30 06:09:21;;;;;;;6.70;4.55;;;;;;;;;;5000705;28;20429;-78
2023/04/30 06:11:49;;;;;;;17.65;4.78;;;;;;;;;;5036822;28;20465;-79
2023/04/30 06:14:17;;;;;;;13.15;4.47;;;;;;;;;;5005212;28;20373;-78
2023/04/30 06:16:44;;;;;;;7.95;4.38;;;;;;;;;;5037351;28;20025;-79
2023/04/30 06:19:09;;;;;;;9.73;4.35;;;;;;;;;;5004285;28;20083;-77
2023/04/30 06:21:35;;;;;;;9.88;4.97;;;;;;;;;;5037138;28;20053;-77
2023/04/30 06:24:00;;;;;;;9.93;5.53;;;;;;;;;;5054839;28;20029;-77
2023/04/30 06:26:26;;;;;;;12.77;4.57;;;;;;;;;;5037139;28;20458;-77
2023/04/30 06:28:51;;;;;;;10.25;4.72;;;;;;;;;;5020422;28;20496;-77
2023/04/30 06:31:17;;;;;;;7.97;4.05;;;;;;;;;;5020406;28;20049;-77
2023/04/30 06:33:42;;;;;;;9.50;4.00;;;;;;;;;;5020704;28;20521;-77
2023/04/30 06:36:08;;;;;;;15.50;4.97;;;;;;;;;;5054501;28;20017;-79
2023/04/30 06:38:33;;;;;;;12.85;5.53;;;;;;;;;;5054237;28;20119;-79
2023/04/30 06:40:58;;;;;;;9.55;5.40;;;;;;;;;;5036663;28;20138;-75
2023/04/30 06:43:24;;;;;;;8.95;4.03;;;;;;;;;;5036725;28;20029;-76
2023/04/30 06:45:49;;;;;;;12.98;5.43;;;;;;;;;;5054401;28;20056;-79
2023/04/30 06:48:15;;;;;;;9.52;5.43;;;;;;;;;;5019832;28;20037;-78
2023/04/30 06:50:43;;;;;;;9.45;4.72;;;;;;;;;;5053311;28;20025;-79
2023/04/30 06:53:13;;;;;;;7.97;3.85;;;;;;;;;;5004624;28;20028;-78
2023/04/30 06:55:43;;;;;;;6.60;3.55;;;;;;;;;;5028820;28;20033;-77
2023/04/30 06:58:08;;;;;;;10.82;4.75;;;;;;;;;;5032947;28;20041;-78
2023/04/30 07:00:34;;;;;;;11.07;4.25;;;;;;;;;;5009345;28;20041;-78
2023/04/30 07:03:01;;;;;;;13.85;5.93;;;;;;;;;;5032534;28;20034;-77
2023/04/30 07:05:27;;;;;;;8.68;3.72;;;;;;;;;;5016819;28;20026;-77
2023/04/30 07:07:52;;;;;;;9.38;4.20;;;;;;;;;;5012043;28;20417;-77
2023/04/30 07:10:18;;;;;;;12.57;5.53;;;;;;;;;;5031114;28;20025;-78
2023/04/30 07:12:44;;;;;;;14.85;3.42;;;;;;;;;;5031410;28;20024;-78
2023/04/30 07:15:09;;;;;;;5.93;3.50;;;;;;;;;;5036171;28;20047;-78
2023/04/30 07:17:35;;;;;;;10.10;4.43;;;;;;;;;;5053818;28;20039;-79
2023/04/30 07:20:03;;;;;;;10.00;4.78;;;;;;;;;;5035992;28;20029;-78
2023/04/30 07:22:28;;;;;;;17.27;5.35;;;;;;;;;;5003819;28;20025;-78
2023/04/30 07:24:54;;;;;;;8.15;3.20;;;;;;;;;;5019426;28;20093;-79
2023/04/30 07:27:20;;;;;;;8.45;3.55;;;;;;;;;;5036013;28;20112;-77
2023/04/30 07:29:45;;;;;;;5.53;3.72;;;;;;;;;;5052569;28;20024;-78
2023/04/30 07:32:10;;;;;;;8.45;4.32;;;;;;;;;;5035964;28;20453;-79
2023/04/30 07:34:36;;;;;;;5.85;3.88;;;;;;;;;;5019036;28;20028;-80
2023/04/30 07:37:02;;;;;;;7.22;3.60;;;;;;;;;;5035788;28;20021;-79
2023/04/30 07:39:28;;;;;;;9.70;4.97;;;;;;;;;;5036428;28;20024;-79
2023/04/30 07:41:53;;;;;;;7.95;3.72;;;;;;;;;;5052357;28;20473;-79
2023/04/30 07:44:20;;;;;;;10.30;4.85;;;;;;;;;;5035824;28;20048;-79
2023/04/30 07:46:46;;;;;;;7.82;3.30;;;;;;;;;;5019498;28;20449;-79
2023/04/30 07:49:11;;;;;;;6.63;4.22;;;;;;;;;;5003069;28;20127;-78
2023/04/30 07:51:37;;;;;;;7.63;3.45;;;;;;;;;;5003134;28;20028;-78
2023/04/30 07:54:03;;;;;;;9.30;4.07;;;;;;;;;;5019434;28;20025;-78
2023/04/30 07:56:29;;;;;;;8.43;3.88;;;;;;;;;;5019501;28;20119;-78
2023/04/30 07:58:54;;;;;;;9.95;4.50;;;;;;;;;;5053766;28;20123;-79
2023/04/30 08:01:20;;;;;;;8.65;4.65;;;;;;;;;;5035749;28;20025;-79
2023/04/30 08:03:45;;;;;;;7.80;4.03;;;;;;;;;;5019113;28;20032;-80
2023/04/30 08:06:11;;;;;;;8.02;3.83;;;;;;;;;;5002737;28;20041;-79
2023/04/30 08:08:36;;;;;;;9.80;4.47;;;;;;;;;;5019696;28;20075;-77
2023/04/30 08:11:02;;;;;;;6.07;4.47;;;;;;;;;;5053286;28;20150;-80
2023/04/30 08:13:27;;;;;;;6.60;4.03;;;;;;;;;;5042189;28;20116;-78
2023/04/30 08:15:53;;;;;;;7.82;4.50;;;;;;;;;;5039086;28;20025;-78
2023/04/30 08:18:18;;;;;;;8.40;4.25;;;;;;;;;;5039026;28;20057;-77
2023/04/30 08:20:44;;;;;;;12.52;4.82;;;;;;;;;;5039474;28;20025;-78
2023/04/30 08:23:09;;;;;;;8.43;4.25;;;;;;;;;;5006341;28;20101;-79
2023/04/30 08:25:35;;;;;;;7.57;3.00;;;;;;;;;;5039593;28;20044;-78
2023/04/30 08:28:01;;;;;;;7.15;3.65;;;;;;;;;;5039307;28;20428;-79
2023/04/30 08:30:26;;;;;;;6.10;3.40;;;;;;;;;;5039122;28;20040;-79
2023/04/30 08:32:52;;;;;;;5.95;3.42;;;;;;;;;;5006215;28;20366;-79
2023/04/30 08:35:18;;;;;;;5.90;3.88;;;;;;;;;;5022921;28;20361;-79
2023/04/30 08:37:43;;;;;;;5.45;3.22;;;;;;;;;;5039076;28;20029;-79
2023/04/30 08:40:10;;;;;;;5.82;3.70;;;;;;;;;;5056653;28;20051;-77
2023/04/30 08:42:36;;;;;;;5.22;3.47;;;;;;;;;;5022589;28;20032;-78
2023/04/30 08:45:02;;;;;;;6.45;3.53;;;;;;;;;;5022650;28;20071;-77
2023/04/30 08:47:28;;;;;;;9.45;3.55;;;;;;;;;;5022460;28;20048;-77
2023/04/30 08:49:53;;;;;;;7.70;3.95;;;;;;;;;;5039221;28;20025;-77
2023/04/30 08:52:19;;;;;;;4.28;2.22;;;;;;;;;;5038830;28;20139;-77
2023/04/30 08:54:44;;;;;;;5.53;2.53;;;;;;;;;;5055330;28;20025;-77
2023/04/30 08:57:10;;;;;;;5.10;2.55;;;;;;;;;;5022947;28;20468;-78
2023/04/30 08:59:35;;;;;;;3.15;2.00;;;;;;;;;;5039128;28;20478;-80
2023/04/30 09:02:01;;;;;;;4.65;2.33;;;;;;;;;;5021903;28;20028;-80
2023/04/30 09:04:26;;;;;;;6.18;3.25;;;;;;;;;;5039019;28;20043;-79
2023/04/30 09:06:57;;;;;;;4.40;2.25;;;;;;;;;;5022253;28;20070;-78
2023/04/30 09:09:29;;;;;;;4.97;2.50;;;;;;;;;;5023535;28;20039;-79
2023/04/30 09:12:14;;;;;;;3.55;2.55;;;;;;;;;;5006420;28;20029;-79
2023/04/30 09:14:40;;;;;;;3.22;2.17;;;;;;;;;;5000143;28;20021;-79
2023/04/30 09:17:07;;;;;;;4.05;2.20;;;;;;;;;;5037741;28;20086;-79
2023/04/30 09:19:33;;;;;;;3.22;2.00;;;;;;;;;;5038532;28;20446;-80
2023/04/30 09:21:58;;;;;;;3.92;2.30;;;;;;;;;;5021843;28;20170;-79
2023/04/30 09:24:24;;;;;;;3.30;2.15;;;;;;;;;;5037201;28;20366;-78
2023/04/30 09:26:49;;;;;;;2.67;2.03;;;;;;;;;;5038502;28;20064;-77
2023/04/30 09:29:15;;;;;;;3.22;2.30;;;;;;;;;;5038395;28;20037;-79
2023/04/30 09:31:47;;;;;;;4.10;2.30;;;;;;;;;;5021339;28;20465;-79
2023/04/30 09:34:12;;;;;;;3.30;2.17;;;;;;;;;;5055698;28;20371;-77
2023/04/30 09:36:52;;;;;;;2.72;2.35;;;;;;;;;;5038089;28;20033;-77
2023/04/30 09:39:17;;;;;;;;;;;;;;;;;;5038531;28;20411;-79
2023/04/30 09:41:43;;;;;;;5.25;2.42;;;;;;;;;;5038054;28;19959;-76
2023/04/30 09:44:25;;;;;;;6.30;3.65;;;;;;;;;;5005315;28;20060;-77
2023/04/30 09:46:51;;;;;;;3.35;2.30;;;;;;;;;;5019448;28;20049;-78
2023/04/30 09:49:16;;;;;;;3.63;2.40;;;;;;;;;;5020210;28;20439;-79
2023/04/30 09:51:58;;;;;;;5.15;2.72;;;;;;;;;;5001626;28;20029;-79
2023/04/30 09:54:25;;;;;;;2.97;2.13;;;;;;;;;;5005621;28;20079;-79
2023/04/30 09:56:52;;;;;;;3.25;1.98;;;;;;;;;;5018126;28;20033;-79
2023/04/30 09:59:18;;;;;;;2.80;2.10;;;;;;;;;;5036642;28;20029;-78
2023/04/30 10:01:43;;;;;;;2.92;2.20;;;;;;;;;;5017800;28;20036;-78
2023/04/30 10:04:09;;;;;;;2.15;1.63;;;;;;;;;;5035490;28;20040;-79
2023/04/30 10:06:34;;;;;;;2.15;1.50;;;;;;;;;;5017787;28;20041;-80
2023/04/30 10:09:00;;;;;;;3.72;2.20;;;;;;;;;;5017699;28;20029;-77
2023/04/30 10:11:27;;;;;;;1.90;1.70;;;;;;;;;;5037596;28;20413;-78
2023/04/30 10:14:16;;;;;;;3.95;1.92;;;;;;;;;;5055275;28;20029;-78
2023/04/30 10:16:56;;;;;;;2.22;2.00;;;;;;;;;;5050336;28;20416;-78
2023/04/30 10:19:22;;;;;;;6.30;2.58;;;;;;;;;;5036281;28;20029;-78
2023/04/30 10:21:48;;;;;;;2.90;1.85;;;;;;;;;;5037665;28;20021;-77
2023/04/30 10:24:17;;;;;;;2.78;2.00;;;;;;;;;;5003829;28;20048;-78
2023/04/30 10:26:42;;;;;;;4.88;1.42;;;;;;;;;;5020976;28;20040;-78
2023/04/30 10:29:07;;;;;;;2.28;1.75;;;;;;;;;;5020224;28;20025;-77
2023/04/30 10:31:33;;;;;;;1.77;1.23;;;;;;;;;;5036975;28;20421;-77
2023/04/30 10:34:20;;;;;;;4.13;1.15;;;;;;;;;;5037104;28;20033;-78
2023/04/30 10:36:50;;;;;;;1.70;1.15;;;;;;;;;;5035718;28;20334;-78
2023/04/30 10:39:22;;;;;;;1.38;1.20;;;;;;;;;;5020925;28;20032;-78
2023/04/30 10:41:48;;;;;;;2.53;1.25;;;;;;;;;;5020784;28;20025;-78
2023/04/30 10:44:20;;;;;;;1.55;1.27;;;;;;;;;;5036703;28;20090;-78
2023/04/30 10:46:45;;;;;;;2.15;1.65;;;;;;;;;;5036571;28;20143;-78
2023/04/30 10:49:13;;;;;;;5.90;1.67;;;;;;;;;;5020224;28;20123;-78
2023/04/30 10:51:50;;;;;;;3.20;1.70;;;;;;;;;;5004532;28;20075;-78
2023/04/30 10:54:18;;;;;;;1.52;1.23;;;;;;;;;;5020502;28;20076;-78
2023/04/30 10:56:44;;;;;;;1.88;1.50;;;;;;;;;;5037050;28;20029;-78
2023/04/30 10:59:11;;;;;;;2.10;1.60;;;;;;;;;;5020327;28;20065;-78
2023/04/30 11:01:58;;;;;;;1.75;1.40;;;;;;;;;;5036718;28;20350;-77
2023/04/30 11:04:24;;;;;;;3.20;1.17;;;;;;;;;;5036196;28;20098;-77
2023/04/30 11:06:55;;;;;;;2.05;1.40;;;;;;;;;;5036510;28;20521;-77
2023/04/30 11:09:40;;;;;;;1.33;1.20;;;;;;;;;;5054131;28;20032;-78
2023/04/30 11:12:19;;;;;;;1.70;1.30;;;;;;;;;;5053660;28;20025;-79
2023/04/30 11:14:44;;;;;;;1.75;1.27;;;;;;;;;;5020980;28;20427;-77
2023/04/30 11:17:11;;;;;;;2.38;1.38;;;;;;;;;;5046355;28;20025;-79
2023/04/30 11:19:44;;;;;;;1.70;1.55;;;;;;;;;;5032997;28;20028;-78
2023/04/30 11:22:10;;;;;;;1.17;1.02;;;;;;;;;;5017997;28;20041;-78
2023/04/30 11:25:04;;;;;;;3.85;1.30;;;;;;;;;;5053912;28;20396;-78
2023/04/30 11:27:33;;;;;;;1.35;0.88;;;;;;;;;;5032721;28;20036;-78
2023/04/30 11:29:59;;;;;;;2.17;1.13;;;;;;;;;;5032790;28;20470;-78
2023/04/30 11:32:30;;;;;;;4.13;1.65;;;;;;;;;;5035744;28;20032;-78
2023/04/30 11:34:56;;;;;;;2.60;1.40;;;;;;;;;;5032778;28;20069;-76
2023/04/30 11:37:27;;;;;;;1.27;1.10;;;;;;;;;;5019168;28;20064;-76
2023/04/30 11:39:53;;;;;;;1.05;0.95;;;;;;;;;;5036266;28;20064;-77
2023/04/30 11:42:19;;;;;;;1.05;0.90;;;;;;;;;;5018075;28;20453;-77
2023/04/30 11:44:44;;;;;;;1.80;1.55;;;;;;;;;;4999724;28;20033;-77
2023/04/30 11:47:12;;;;;;;1.65;1.48;;;;;;;;;;4979673;28;20046;-77
2023/04/30 11:49:37;;;;;;;1.67;1.25;;;;;;;;;;4996371;28;20034;-77
2023/04/30 11:52:03;;;;;;;2.25;0.90;;;;;;;;;;5012641;28;20026;-80
2023/04/30 11:54:32;;;;;;;2.20;1.23;;;;;;;;;;5012943;28;20030;-77
2023/04/30 11:57:02;;;;;;;1.27;1.00;;;;;;;;;;5013605;28;20052;-77
2023/04/30 11:59:28;;;;;;;1.20;1.00;;;;;;;;;;4996877;28;20053;-77
2023/04/30 12:01:53;;;;;;;1.98;0.85;;;;;;;;;;5013763;28;20061;-77
2023/04/30 12:04:18;;;;;;;0.70;0.63;;;;;;;;;;5012523;28;20026;-77
2023/04/30 12:06:44;;;;;;;1.63;0.77;;;;;;;;;;5012564;28;20029;-77
2023/04/30 12:09:10;;;;;;;0.82;0.70;;;;;;;;;;5013801;28;20037;-79
2023/04/30 12:11:38;;;;;;;1.88;1.13;;;;;;;;;;5013803;28;20034;-78
2023/04/30 12:14:09;;;;;;;1.63;1.10;;;;;;;;;;4996399;28;20037;-80
2023/04/30 12:16:48;;;;;;;1.33;0.75;;;;;;;;;;4984653;28;20025;-79
2023/04/30 12:19:15;;;;;;;1.27;1.02;;;;;;;;;;5001874;28;20344;-78
2023/04/30 12:21:43;;;;;;;1.95;1.10;;;;;;;;;;5035753;28;20410;-78
2023/04/30 12:24:10;;;;;;;2.75;1.35;;;;;;;;;;5019369;28;20033;-78
2023/04/30 12:26:38;;;;;;;0.93;0.77;;;;;;;;;;5018855;28;20029;-78
2023/04/30 12:29:10;;;;;;;1.92;1.00;;;;;;;;;;5035820;28;20040;-78
2023/04/30 12:31:36;;;;;;;1.67;0.85;;;;;;;;;;5036385;28;20394;-78
2023/04/30 12:34:06;;;;;;;0.98;0.88;;;;;;;;;;5035555;28;20060;-78
2023/04/30 12:36:32;;;;;;;1.67;1.08;;;;;;;;;;5002794;28;20114;-78
2023/04/30 12:39:11;;;;;;;1.33;0.70;;;;;;;;;;5019107;28;20041;-78
2023/04/30 12:41:41;;;;;;;0.80;0.80;;;;;;;;;;5002916;28;20316;-78
2023/04/30 12:44:23;;;;;;;0.77;0.57;;;;;;;;;;5035121;28;20037;-78
2023/04/30 12:46:50;;;;;;;1.00;0.90;;;;;;;;;;5019651;28;20041;-78
2023/04/30 12:49:33;;;;;;;0.80;0.80;;;;;;;;;;4993633;28;20026;-78
2023/04/30 12:52:06;;;;;;;1.05;0.95;;;;;;;;;;5012039;28;20072;-78
2023/04/30 12:54:32;;;;;;;0.75;0.75;;;;;;;;;;4996385;28;20432;-78
2023/04/30 12:56:58;;;;;;;1.17;0.80;;;;;;;;;;5012051;28;20026;-76
2023/04/30 12:59:24;;;;;;;1.60;1.10;;;;;;;;;;5012855;28;20026;-76
2023/04/30 13:01:49;;;;;;;0.70;0.60;;;;;;;;;;5015681;28;20037;-77
2023/04/30 13:04:16;;;;;;;1.02;0.93;;;;;;;;;;5015434;28;20026;-76
2023/04/30 13:06:41;;;;;;;0.85;0.73;;;;;;;;;;4999538;28;20032;-77
2023/04/30 13:09:07;;;;;;;0.70;0.70;;;;;;;;;;5015148;28;20371;-77
2023/04/30 13:11:32;;;;;;;4.35;0.80;;;;;;;;;;5015513;28;20026;-76
2023/04/30 13:13:58;;;;;;;0.63;0.63;;;;;;;;;;5016505;28;20076;-77
2023/04/30 13:16:23;;;;;;;2.10;1.00;;;;;;;;;;5018566;28;20361;-77
2023/04/30 13:18:49;;;;;;;0.82;0.77;;;;;;;;;;5018574;28;20029;-78
2023/04/30 13:21:14;;;;;;;1.20;1.10;;;;;;;;;;5036798;28;20051;-78
2023/04/30 13:23:39;;;;;;;1.77;1.15;;;;;;;;;;5038068;28;20051;-78
2023/04/30 13:26:05;;;;;;;1.27;0.95;;;;;;;;;;5038690;28;20437;-78
2023/04/30 13:28:31;;;;;;;0.82;0.80;;;;;;;;;;5022366;28;20024;-79
2023/04/30 13:30:56;;;;;;;1.95;1.20;;;;;;;;;;5056036;28;20458;-78
2023/04/30 13:33:22;;;;;;;1.00;0.88;;;;;;;;;;5038185;28;20438;-78
2023/04/30 13:35:50;;;;;;;1.08;0.82;;;;;;;;;;5038098;28;20036;-78
2023/04/30 13:38:16;;;;;;;1.20;0.77;;;;;;;;;;5020583;28;20049;-78
2023/04/30 13:40:41;;;;;;;1.13;1.02;;;;;;;;;;5037954;28;20377;-77
2023/04/30 13:43:06;;;;;;;1.92;0.90;;;;;;;;;;5021575;28;20372;-77
2023/04/30 13:45:32;;;;;;;2.50;1.08;;;;;;;;;;5055782;28;20057;-78
2023/04/30 13:47:57;;;;;;;1.38;0.90;;;;;;;;;;5055580;28;20041;-78
2023/04/30 13:50:23;;;;;;;1.00;0.90;;;;;;;;;;5021174;28;20037;-78
2023/04/30 13:52:48;;;;;;;1.10;0.88;;;;;;;;;;5014544;28;20048;-78
2023/04/30 13:55:14;;;;;;;1.60;1.20;;;;;;;;;;4998399;28;20036;-78
2023/04/30 13:57:39;;;;;;;1.42;1.00;;;;;;;;;;4998056;28;20045;-78
2023/04/30 14:00:06;;;;;;;1.75;0.95;;;;;;;;;;5015603;28;20034;-78
2023/04/30 14:02:32;;;;;;;1.13;1.00;;;;;;;;;;5014528;28;20087;-78
2023/04/30 14:04:58;;;;;;;2.90;1.10;;;;;;;;;;5016182;28;20422;-77
2023/04/30 14:07:24;;;;;;;1.98;1.30;;;;;;;;;;4981829;28;20049;-78
2023/04/30 14:09:49;;;;;;;1.13;1.00;;;;;;;;;;5014614;28;20022;-78
2023/04/30 14:12:15;;;;;;;2.05;1.05;;;;;;;;;;4997634;28;20033;-79
2023/04/30 14:14:40;;;;;;;1.50;1.10;;;;;;;;;;5014271;28;20080;-78
2023/04/30 14:17:06;;;;;;;1.00;1.00;;;;;;;;;;5022767;28;20045;-78
2023/04/30 14:19:32;;;;;;;1.33;1.20;;;;;;;;;;5020816;28;20461;-78
2023/04/30 14:21:57;;;;;;;1.55;1.35;;;;;;;;;;5037065;28;20029;-78
2023/04/30 14:24:23;;;;;;;1.05;0.95;;;;;;;;;;5037229;28;20427;-77
2023/04/30 14:26:48;;;;;;;2.45;1.60;;;;;;;;;;5037446;28;20028;-78
2023/04/30 14:29:14;;;;;;;1.80;1.00;;;;;;;;;;5055015;28;20348;-78
2023/04/30 14:31:40;;;;;;;1.20;1.10;;;;;;;;;;5037161;28;20438;-79
2023/04/30 14:34:05;;;;;;;1.25;1.08;;;;;;;;;;5055051;28;20037;-80
2023/04/30 14:36:30;;;;;;;1.42;1.10;;;;;;;;;;5036757;28;20064;-76
2023/04/30 14:38:56;;;;;;;1.17;0.90;;;;;;;;;;5036931;28;20029;-79
2023/04/30 14:41:21;;;;;;;1.50;1.10;;;;;;;;;;5004086;28;20029;-76
2023/04/30 14:43:47;;;;;;;0.88;0.88;;;;;;;;;;5036928;28;20024;-79